Time;durP1;ratioP1;P1;durP2;ratioP2;P2;SDS_P1;SDS_P2;PMS_P1;PMS_P2;Temp;Humidity;BMP_temperature;BMP_pressure;BME280_temperature;BME280_humidity;BME280_pressure;Samples;Min_cycle;Max_cycle;Signal;HPM_P1;HPM_P2
2023/04/09 00:01:19;;;;;;;80.63;44.67;;;9.00;99.90;;;;;;5047307;28;20048;-80
2023/04/09 00:03:47;;;;;;;78.05;42.00;;;8.90;99.90;;;;;;5044272;28;20057;-80
2023/04/09 00:06:16;;;;;;;83.80;44.72;;;8.90;99.90;;;;;;5028998;28;20525;-80
2023/04/09 00:08:42;;;;;;;80.45;43.55;;;8.90;99.90;;;;;;5060931;28;20529;-80
2023/04/09 00:11:08;;;;;;;77.28;42.97;;;8.90;99.90;;;;;;5044930;28;20041;-80
2023/04/09 00:13:34;;;;;;;79.03;43.17;;;8.90;99.90;;;;;;5045639;28;20049;-80
2023/04/09 00:16:00;;;;;;;77.63;44.45;;;9.90;99.90;;;;;;5045203;28;20049;-80
2023/04/09 00:18:25;;;;;;;78.10;44.13;;;8.90;99.90;;;;;;5046590;28;20476;-80
2023/04/09 00:20:51;;;;;;;73.32;42.33;;;8.90;99.90;;;;;;5044566;28;20091;-80
2023/04/09 00:23:17;;;;;;;75.78;41.78;;;8.90;99.90;;;;;;5062447;28;20484;-80
2023/04/09 00:25:42;;;;;;;76.32;41.78;;;8.90;99.90;;;;;;5044178;28;20049;-80
2023/04/09 00:28:08;;;;;;;68.57;38.28;;;9.30;99.90;;;;;;5044694;28;20582;-80
2023/04/09 00:30:34;;;;;;;67.88;38.05;;;8.80;99.90;;;;;;5044618;28;20049;-80
2023/04/09 00:32:59;;;;;;;62.13;36.67;;;8.80;99.90;;;;;;5043954;28;20045;-80
2023/04/09 00:35:25;;;;;;;66.00;37.80;;;8.90;99.90;;;;;;5045760;28;20067;-80
2023/04/09 00:37:51;;;;;;;63.30;36.83;;;9.20;99.90;;;;;;5043124;28;20068;-81
2023/04/09 00:40:16;;;;;;;62.63;36.72;;;8.80;99.90;;;;;;5029041;28;20045;-80
2023/04/09 00:42:42;;;;;;;65.32;35.80;;;8.90;99.90;;;;;;5043678;28;20088;-80
2023/04/09 00:45:08;;;;;;;61.00;36.88;;;8.80;99.90;;;;;;5044631;28;20060;-80
2023/04/09 00:47:34;;;;;;;63.35;35.92;;;8.70;99.90;;;;;;5044116;28;20484;-80
2023/04/09 00:50:01;;;;;;;69.28;37.78;;;8.70;99.90;;;;;;5045682;28;20053;-80
2023/04/09 00:52:29;;;;;;;57.60;34.50;;;8.70;99.90;;;;;;5011290;28;20041;-80
2023/04/09 00:54:57;;;;;;;58.05;35.67;;;8.70;99.90;;;;;;5060696;28;20820;-80
2023/04/09 00:57:23;;;;;;;59.15;35.95;;;8.70;99.90;;;;;;5062257;28;20522;-80
2023/04/09 00:59:49;;;;;;;66.63;36.53;;;8.70;99.90;;;;;;5027055;28;20084;-80
2023/04/09 01:02:15;;;;;;;58.38;34.10;;;8.20;99.90;;;;;;5028461;28;20039;-80
2023/04/09 01:04:42;;;;;;;53.38;32.83;;;8.70;99.90;;;;;;5044537;28;20060;-80
2023/04/09 01:07:29;;;;;;;49.72;27.88;;;8.70;99.90;;;;;;5043657;28;20061;-80
2023/04/09 01:10:10;;;;;;;49.35;26.83;;;8.70;99.90;;;;;;5045801;28;20116;-80
2023/04/09 01:13:00;;;;;;;47.00;25.98;;;8.70;99.90;;;;;;5026800;28;20052;-80
2023/04/09 01:15:28;;;;;;;42.63;23.88;;;8.70;99.90;;;;;;5027406;28;20136;-80
2023/04/09 01:18:09;;;;;;;47.65;23.85;;;8.70;99.90;;;;;;5044308;28;20048;-80
2023/04/09 01:20:40;;;;;;;35.67;21.63;;;8.70;99.90;;;;;;5026396;28;20304;-80
2023/04/09 01:23:24;;;;;;;38.72;22.27;;;8.70;99.90;;;;;;5028727;28;20045;-80
2023/04/09 01:25:59;;;;;;;39.17;20.75;;;8.70;99.90;;;;;;5043484;28;20056;-80
2023/04/09 01:28:26;;;;;;;33.35;20.35;;;8.60;99.90;;;;;;5043592;28;20086;-80
2023/04/09 01:30:58;;;;;;;38.78;21.58;;;9.00;99.90;;;;;;5044479;28;20049;-80
2023/04/09 01:33:25;;;;;;;35.95;22.42;;;8.60;99.90;;;;;;5060171;28;20461;-80
2023/04/09 01:35:52;;;;;;;39.75;22.48;;;7.90;99.90;;;;;;5061508;28;20439;-80
2023/04/09 01:38:20;;;;;;;34.00;21.95;;;8.60;99.90;;;;;;5076078;28;20099;-79
2023/04/09 01:40:47;;;;;;;35.15;22.63;;;8.60;99.90;;;;;;5043758;28;20045;-80
2023/04/09 01:43:14;;;;;;;38.15;23.25;;;9.10;99.90;;;;;;5076951;28;20048;-80
2023/04/09 01:45:40;;;;;;;37.22;23.17;;;8.80;99.90;;;;;;5059456;28;20056;-80
2023/04/09 01:48:07;;;;;;;43.03;24.08;;;8.60;99.90;;;;;;5044665;28;20405;-81
2023/04/09 01:50:33;;;;;;;39.42;23.23;;;8.60;99.90;;;;;;5026445;28;20071;-80
2023/04/09 01:53:00;;;;;;;41.38;22.92;;;8.60;99.90;;;;;;5061019;28;20485;-80
2023/04/09 01:55:26;;;;;;;38.20;24.08;;;8.60;99.90;;;;;;5058909;28;20051;-80
2023/04/09 01:57:52;;;;;;;35.85;21.30;;;8.60;99.90;;;;;;5043733;28;20045;-81
2023/04/09 02:00:18;;;;;;;46.97;22.25;;;8.70;99.90;;;;;;5026275;28;20049;-80
2023/04/09 02:03:00;;;;;;;37.00;21.88;;;8.60;99.90;;;;;;5042876;28;20472;-80
2023/04/09 02:05:30;;;;;;;30.58;17.83;;;8.50;99.90;;;;;;5077933;28;20045;-80
2023/04/09 02:08:00;;;;;;;34.30;20.65;;;8.50;99.90;;;;;;5042132;28;20416;-81
2023/04/09 02:10:29;;;;;;;37.28;20.70;;;8.50;99.90;;;;;;5027455;28;20033;-80
2023/04/09 02:12:56;;;;;;;38.58;20.90;;;8.70;99.90;;;;;;5059505;28;20040;-80
2023/04/09 02:15:23;;;;;;;36.33;20.58;;;8.50;99.90;;;;;;5059127;28;20041;-81
2023/04/09 02:17:49;;;;;;;35.90;20.77;;;8.50;99.90;;;;;;5043335;28;20411;-80
2023/04/09 02:20:19;;;;;;;35.75;21.52;;;8.60;99.90;;;;;;5025820;28;20039;-80
2023/04/09 02:22:45;;;;;;;41.63;20.67;;;8.50;99.90;;;;;;5027806;28;20049;-80
2023/04/09 02:25:11;;;;;;;37.65;21.02;;;8.50;99.90;;;;;;5043220;28;20492;-81
2023/04/09 02:27:37;;;;;;;31.02;19.48;;;8.60;99.90;;;;;;5026656;28;20049;-81
2023/04/09 02:30:03;;;;;;;34.00;20.50;;;8.60;99.90;;;;;;5059192;28;20110;-81
2023/04/09 02:32:29;;;;;;;30.40;18.52;;;8.50;99.90;;;;;;5025643;28;20076;-80
2023/04/09 02:34:54;;;;;;;37.10;20.73;;;8.50;99.90;;;;;;5043295;28;20076;-80
2023/04/09 02:37:20;;;;;;;27.55;17.70;;;8.50;99.90;;;;;;5041826;28;20252;-80
2023/04/09 02:39:46;;;;;;;31.33;18.58;;;8.50;99.90;;;;;;5043568;28;20060;-80
2023/04/09 02:42:12;;;;;;;33.75;19.33;;;8.50;99.90;;;;;;5041540;28;20045;-80
2023/04/09 02:44:37;;;;;;;34.13;17.58;;;9.20;99.90;;;;;;5043114;28;20055;-80
2023/04/09 02:47:03;;;;;;;31.38;18.50;;;8.90;99.90;;;;;;5041370;28;20048;-81
2023/04/09 02:49:29;;;;;;;30.58;19.23;;;9.70;99.90;;;;;;5075870;28;20396;-80
2023/04/09 02:51:54;;;;;;;33.03;19.63;;;8.50;99.90;;;;;;5026254;28;20040;-80
2023/04/09 02:54:20;;;;;;;29.80;20.15;;;8.50;99.90;;;;;;5041509;28;20037;-81
2023/04/09 02:56:45;;;;;;;31.85;18.65;;;8.40;99.90;;;;;;5043815;28;20052;-80
2023/04/09 02:59:11;;;;;;;34.25;19.75;;;9.30;99.90;;;;;;5040999;28;20067;-80
2023/04/09 03:01:37;;;;;;;37.97;20.58;;;8.40;99.90;;;;;;5043452;28;20056;-80
2023/04/09 03:04:03;;;;;;;31.98;19.42;;;8.40;99.90;;;;;;5041364;28;20381;-81
2023/04/09 03:06:28;;;;;;;34.08;20.52;;;8.40;99.90;;;;;;5025760;28;20044;-80
2023/04/09 03:08:54;;;;;;;32.10;20.35;;;8.80;99.90;;;;;;5025601;28;20052;-80
2023/04/09 03:11:20;;;;;;;34.30;19.90;;;9.70;99.90;;;;;;5041892;28;20045;-80
2023/04/09 03:13:45;;;;;;;39.67;21.65;;;8.40;99.90;;;;;;5044778;28;20481;-80
2023/04/09 03:16:11;;;;;;;32.63;20.02;;;8.40;99.90;;;;;;5041733;28;20049;-80
2023/04/09 03:18:37;;;;;;;37.45;20.33;;;8.40;99.90;;;;;;5047139;28;20480;-80
2023/04/09 03:21:07;;;;;;;36.80;20.38;;;8.40;99.90;;;;;;5045071;28;20065;-80
2023/04/09 03:23:33;;;;;;;36.67;20.67;;;8.30;99.90;;;;;;5046540;28;20254;-80
2023/04/09 03:26:05;;;;;;;32.95;20.75;;;8.80;99.90;;;;;;5045929;28;20053;-81
2023/04/09 03:28:31;;;;;;;36.28;21.40;;;8.30;99.90;;;;;;5045342;28;20152;-81
2023/04/09 03:30:57;;;;;;;37.10;22.08;;;8.30;99.90;;;;;;5014179;28;20132;-80
2023/04/09 03:33:23;;;;;;;42.50;21.67;;;9.60;99.90;;;;;;5045393;28;20489;-81
2023/04/09 03:35:49;;;;;;;34.40;19.98;;;8.30;99.90;;;;;;5046860;28;20049;-80
2023/04/09 03:38:15;;;;;;;38.97;21.92;;;8.20;99.90;;;;;;5061615;28;20100;-81
2023/04/09 03:40:41;;;;;;;34.45;20.90;;;9.40;99.90;;;;;;5029430;28;20095;-80
2023/04/09 03:43:07;;;;;;;36.10;22.23;;;8.20;99.90;;;;;;5029531;28;20563;-80
2023/04/09 03:45:33;;;;;;;39.53;22.15;;;8.20;99.90;;;;;;5047436;28;20100;-80
2023/04/09 03:47:58;;;;;;;35.08;19.50;;;8.30;99.90;;;;;;5047540;28;20052;-81
2023/04/09 03:50:24;;;;;;;42.55;22.48;;;8.40;99.90;;;;;;5044928;28;20253;-80
2023/04/09 03:52:50;;;;;;;36.83;20.80;;;8.10;99.90;;;;;;5047088;28;20111;-79
2023/04/09 03:55:16;;;;;;;36.70;21.88;;;8.50;99.90;;;;;;5044900;28;20048;-80
2023/04/09 03:57:41;;;;;;;40.83;22.35;;;8.10;99.90;;;;;;5045603;28;20072;-80
2023/04/09 04:00:08;;;;;;;37.45;22.00;;;8.80;99.90;;;;;;5028407;28;20076;-80
2023/04/09 04:02:34;;;;;;;36.05;20.77;;;8.00;99.90;;;;;;5028300;28;20049;-80
2023/04/09 04:04:59;;;;;;;40.47;21.45;;;8.20;99.90;;;;;;5046061;28;20111;-80
2023/04/09 04:07:26;;;;;;;42.55;22.85;;;8.00;99.90;;;;;;5044126;28;20064;-81
2023/04/09 04:09:51;;;;;;;33.10;21.17;;;8.80;99.90;;;;;;5030051;28;20056;-80
2023/04/09 04:12:17;;;;;;;42.63;21.95;;;7.90;99.90;;;;;;5044754;28;20044;-80
2023/04/09 04:14:43;;;;;;;40.92;22.00;;;8.50;99.90;;;;;;5061952;28;20135;-80
2023/04/09 04:17:10;;;;;;;37.33;21.05;;;7.90;99.90;;;;;;5027705;28;20463;-80
2023/04/09 04:19:36;;;;;;;41.85;22.27;;;8.50;99.90;;;;;;5044799;28;20518;-80
2023/04/09 04:22:02;;;;;;;35.42;22.60;;;7.90;99.90;;;;;;5046012;28;20045;-80
2023/04/09 04:24:27;;;;;;;39.28;21.55;;;7.90;99.90;;;;;;5028392;28;20148;-80
2023/04/09 04:26:53;;;;;;;39.17;23.35;;;7.90;99.90;;;;;;5029718;28;20126;-80
2023/04/09 04:29:21;;;;;;;41.65;23.25;;;7.90;99.90;;;;;;5027896;28;20084;-80
2023/04/09 04:31:47;;;;;;;38.78;22.63;;;7.90;99.90;;;;;;5028913;28;20088;-80
2023/04/09 04:34:12;;;;;;;36.75;21.67;;;7.90;99.90;;;;;;5044246;28;20370;-80
2023/04/09 04:36:38;;;;;;;38.75;23.55;;;7.90;99.90;;;;;;5044450;28;20135;-80
2023/04/09 04:39:04;;;;;;;41.30;24.63;;;7.90;99.90;;;;;;5045262;28;20049;-80
2023/04/09 04:41:29;;;;;;;35.80;21.92;;;8.50;99.90;;;;;;5044194;28;20140;-80
2023/04/09 04:43:56;;;;;;;37.03;21.17;;;7.90;99.90;;;;;;5045192;28;20048;-80
2023/04/09 04:46:22;;;;;;;35.67;22.73;;;7.90;99.90;;;;;;5027466;28;20053;-80
2023/04/09 04:48:47;;;;;;;37.47;22.42;;;8.00;99.90;;;;;;5045155;28;20037;-80
2023/04/09 04:51:13;;;;;;;37.05;20.83;;;8.00;99.90;;;;;;5060533;28;20041;-80
2023/04/09 04:53:39;;;;;;;40.58;21.63;;;8.00;99.90;;;;;;5044384;28;20118;-80
2023/04/09 04:56:05;;;;;;;37.70;22.38;;;8.00;99.90;;;;;;5045035;28;20076;-81
2023/04/09 04:58:31;;;;;;;38.88;23.83;;;8.00;99.90;;;;;;5027274;28;20056;-81
2023/04/09 05:00:56;;;;;;;38.17;20.60;;;8.00;99.90;;;;;;5045624;28;20577;-80
2023/04/09 05:03:22;;;;;;;38.38;22.67;;;8.00;99.90;;;;;;5042890;28;20052;-80
2023/04/09 05:05:48;;;;;;;38.17;22.95;;;8.10;99.90;;;;;;5028674;28;20053;-80
2023/04/09 05:08:13;;;;;;;33.95;20.42;;;8.00;99.90;;;;;;5043334;28;20061;-80
2023/04/09 05:10:42;;;;;;;38.03;22.10;;;8.10;99.90;;;;;;5044602;28;20049;-80
2023/04/09 05:13:08;;;;;;;36.20;20.80;;;8.10;99.90;;;;;;5044296;28;20045;-80
2023/04/09 05:15:40;;;;;;;39.30;23.05;;;8.10;99.90;;;;;;5027227;28;20052;-80
2023/04/09 05:18:06;;;;;;;42.28;22.42;;;8.10;99.90;;;;;;5029313;28;20053;-80
2023/04/09 05:20:33;;;;;;;38.05;23.35;;;8.20;99.90;;;;;;5076966;28;20402;-80
2023/04/09 05:22:58;;;;;;;36.03;22.02;;;8.20;99.90;;;;;;5061342;28;20049;-81
2023/04/09 05:25:24;;;;;;;40.40;23.92;;;8.20;99.90;;;;;;5077232;28;20128;-80
2023/04/09 05:27:50;;;;;;;37.28;24.45;;;8.20;99.90;;;;;;5061056;28;20049;-80
2023/04/09 05:30:16;;;;;;;37.67;23.98;;;8.20;99.90;;;;;;5043355;28;20481;-80
2023/04/09 05:32:41;;;;;;;40.03;23.35;;;8.20;99.90;;;;;;5042858;28;20048;-80
2023/04/09 05:35:07;;;;;;;42.85;25.92;;;8.30;99.90;;;;;;5028703;28;20037;-80
2023/04/09 05:37:33;;;;;;;42.75;25.65;;;8.30;99.90;;;;;;5025757;28;20516;-80
2023/04/09 05:39:59;;;;;;;43.20;24.90;;;8.30;99.90;;;;;;5060803;28;20041;-80
2023/04/09 05:42:25;;;;;;;43.30;25.30;;;8.30;99.90;;;;;;5026805;28;20037;-81
2023/04/09 05:44:51;;;;;;;41.58;25.33;;;8.00;99.90;;;;;;5027779;28;20099;-80
2023/04/09 05:47:16;;;;;;;45.42;26.42;;;8.30;99.90;;;;;;5077359;28;20076;-78
2023/04/09 05:49:42;;;;;;;44.72;24.50;;;8.40;99.90;;;;;;5026258;28;20489;-78
2023/04/09 05:52:08;;;;;;;42.35;26.23;;;8.40;99.90;;;;;;5028233;28;20535;-77
2023/04/09 05:54:34;;;;;;;44.13;25.73;;;8.40;99.90;;;;;;5042152;28;20490;-77
2023/04/09 05:57:09;;;;;;;50.28;26.20;;;8.40;99.90;;;;;;5044674;28;20411;-77
2023/04/09 05:59:35;;;;;;;44.00;26.08;;;8.40;99.90;;;;;;5025478;28;20049;-76
2023/04/09 06:02:01;;;;;;;42.60;25.42;;;8.50;99.90;;;;;;5043655;28;20048;-76
2023/04/09 06:04:27;;;;;;;40.03;23.35;;;8.50;99.90;;;;;;5026447;28;20410;-76
2023/04/09 06:06:52;;;;;;;38.95;23.45;;;8.60;99.90;;;;;;5042196;28;20080;-77
2023/04/09 06:09:18;;;;;;;37.40;22.40;;;8.50;99.90;;;;;;5043928;28;20133;-77
2023/04/09 06:11:44;;;;;;;35.80;20.05;;;8.50;99.90;;;;;;5025563;28;20041;-77
2023/04/09 06:14:15;;;;;;;34.97;20.33;;;8.50;99.90;;;;;;5044036;28;20677;-77
2023/04/09 06:16:40;;;;;;;38.58;23.38;;;8.70;99.90;;;;;;5042369;28;20076;-78
2023/04/09 06:19:06;;;;;;;38.55;22.73;;;8.50;99.90;;;;;;5042833;28;20469;-77
2023/04/09 06:21:32;;;;;;;34.83;19.42;;;9.00;99.90;;;;;;5042543;28;20094;-76
2023/04/09 06:23:57;;;;;;;34.42;18.85;;;8.50;99.90;;;;;;5025830;28;20044;-77
2023/04/09 06:26:23;;;;;;;31.30;20.70;;;9.10;99.90;;;;;;5027148;28;20496;-77
2023/04/09 06:28:49;;;;;;;31.60;19.52;;;8.90;99.90;;;;;;5024824;28;20036;-77
2023/04/09 06:31:15;;;;;;;30.25;17.55;;;8.60;99.90;;;;;;5043701;28;20091;-77
2023/04/09 06:33:40;;;;;;;31.13;19.73;;;8.50;99.90;;;;;;5025491;28;20125;-78
2023/04/09 06:36:06;;;;;;;35.38;19.30;;;8.50;99.90;;;;;;5026114;28;20492;-77
2023/04/09 06:38:32;;;;;;;33.80;19.27;;;8.50;99.90;;;;;;5025444;28;20052;-78
2023/04/09 06:40:58;;;;;;;31.10;19.25;;;8.50;99.90;;;;;;5041843;28;20053;-78
2023/04/09 06:43:24;;;;;;;32.20;19.85;;;9.80;99.90;;;;;;5060296;28;20135;-78
2023/04/09 06:45:49;;;;;;;33.65;20.50;;;8.60;99.90;;;;;;5057805;28;20041;-77
2023/04/09 06:48:15;;;;;;;33.13;21.20;;;9.40;99.90;;;;;;5043953;28;20041;-78
2023/04/09 06:50:41;;;;;;;31.85;20.52;;;8.90;99.90;;;;;;5040369;28;20529;-78
2023/04/09 06:53:06;;;;;;;37.22;22.58;;;8.50;99.90;;;;;;5043040;28;20099;-77
2023/04/09 06:55:32;;;;;;;35.40;21.60;;;8.60;99.90;;;;;;5042016;28;20124;-77
2023/04/09 06:57:58;;;;;;;37.10;23.38;;;8.60;99.90;;;;;;5058452;28;20052;-78
2023/04/09 07:00:24;;;;;;;36.72;22.30;;;8.80;99.90;;;;;;5026760;28;20604;-80
2023/04/09 07:02:49;;;;;;;31.20;20.58;;;8.70;99.90;;;;;;5041363;28;20526;-78
2023/04/09 07:05:16;;;;;;;41.50;24.02;;;8.70;99.90;;;;;;5027286;28;20492;-78
2023/04/09 07:07:41;;;;;;;33.10;20.88;;;8.70;99.90;;;;;;5024202;28;20041;-78
2023/04/09 07:10:08;;;;;;;35.38;21.52;;;8.80;99.90;;;;;;5026625;28;20049;-79
2023/04/09 07:12:36;;;;;;;36.05;21.83;;;8.80;99.90;;;;;;5042786;28;20052;-78
2023/04/09 07:15:04;;;;;;;30.40;20.55;;;8.80;99.90;;;;;;5025261;28;20041;-80
2023/04/09 07:17:31;;;;;;;38.28;20.58;;;8.90;99.90;;;;;;5042364;28;20045;-79
2023/04/09 07:19:56;;;;;;;32.47;20.70;;;8.90;99.90;;;;;;5057467;28;20040;-79
2023/04/09 07:22:25;;;;;;;36.05;21.80;;;8.90;99.90;;;;;;5026519;28;20041;-79
2023/04/09 07:24:54;;;;;;;35.67;22.95;;;8.90;99.90;;;;;;5042150;28;20037;-78
2023/04/09 07:27:20;;;;;;;38.03;23.08;;;9.20;99.90;;;;;;5042255;28;20045;-80
2023/04/09 07:29:46;;;;;;;44.60;23.23;;;8.90;99.90;;;;;;5025436;28;20041;-79
2023/04/09 07:32:12;;;;;;;38.28;23.42;;;9.00;99.90;;;;;;5074964;28;20076;-79
2023/04/09 07:34:38;;;;;;;37.97;23.08;;;9.00;99.90;;;;;;5042659;28;20053;-79
2023/04/09 07:37:04;;;;;;;38.95;23.70;;;9.00;99.90;;;;;;5024637;28;20542;-79
2023/04/09 07:39:30;;;;;;;40.45;24.15;;;9.00;99.90;;;;;;5042435;28;20056;-79
2023/04/09 07:41:56;;;;;;;36.38;22.30;;;9.00;99.90;;;;;;5007873;28;20102;-78
2023/04/09 07:44:22;;;;;;;39.33;23.10;;;9.10;99.90;;;;;;5009635;28;20041;-79
2023/04/09 07:46:48;;;;;;;35.90;22.67;;;9.20;99.90;;;;;;5041204;28;20062;-78
2023/04/09 07:49:13;;;;;;;39.50;22.17;;;9.30;99.90;;;;;;5024783;28;20123;-79
2023/04/09 07:51:39;;;;;;;37.22;22.90;;;9.30;99.90;;;;;;5025436;28;20045;-79
2023/04/09 07:54:05;;;;;;;38.53;23.45;;;9.40;99.90;;;;;;5024471;28;20037;-79
2023/04/09 07:56:30;;;;;;;37.28;23.30;;;9.50;99.90;;;;;;5026437;28;20045;-79
2023/04/09 07:58:56;;;;;;;36.47;21.67;;;9.60;99.90;;;;;;5024282;28;20045;-79
2023/04/09 08:01:23;;;;;;;42.72;22.02;;;9.80;99.90;;;;;;5042955;28;20076;-79
2023/04/09 08:03:49;;;;;;;37.85;23.10;;;10.40;99.90;;;;;;5028022;28;20048;-79
2023/04/09 08:06:15;;;;;;;35.95;21.92;;;10.20;99.90;;;;;;5045218;28;20485;-79
2023/04/09 08:08:42;;;;;;;37.28;21.33;;;9.80;99.90;;;;;;5045714;28;20064;-80
2023/04/09 08:11:08;;;;;;;39.67;22.45;;;9.80;99.90;;;;;;5027780;28;20049;-80
2023/04/09 08:13:34;;;;;;;34.63;21.63;;;9.80;99.90;;;;;;5046667;28;20041;-79
2023/04/09 08:16:02;;;;;;;31.90;20.65;;;9.80;99.90;;;;;;5027204;28;20040;-79
2023/04/09 08:18:28;;;;;;;35.95;22.02;;;9.90;99.90;;;;;;5029478;28;20045;-80
2023/04/09 08:20:55;;;;;;;35.72;21.13;;;9.90;99.90;;;;;;5027640;28;20087;-79
2023/04/09 08:23:21;;;;;;;35.38;20.58;;;9.90;99.90;;;;;;5028344;28;20041;-79
2023/04/09 08:25:47;;;;;;;35.83;20.33;;;10.10;99.90;;;;;;5027826;28;20439;-79
2023/04/09 08:28:13;;;;;;;32.50;20.40;;;10.10;99.90;;;;;;5044251;28;20052;-81
2023/04/09 08:30:39;;;;;;;38.17;22.27;;;10.80;99.90;;;;;;5047621;28;20396;-79
2023/04/09 08:33:04;;;;;;;32.17;19.52;;;10.10;99.90;;;;;;5043403;28;20045;-79
2023/04/09 08:35:30;;;;;;;33.55;19.58;;;10.10;99.90;;;;;;5012941;28;20048;-78
2023/04/09 08:37:57;;;;;;;38.33;20.85;;;10.20;99.90;;;;;;5077235;28;20041;-78
2023/04/09 08:40:23;;;;;;;32.00;19.77;;;10.20;99.90;;;;;;5028175;28;20511;-79
2023/04/09 08:42:57;;;;;;;36.67;19.90;;;10.30;99.90;;;;;;5061950;28;20037;-78
2023/04/09 08:45:23;;;;;;;31.00;20.15;;;10.40;99.90;;;;;;5076909;28;20048;-78
2023/04/09 08:47:50;;;;;;;34.92;20.17;;;10.30;99.90;;;;;;5029186;28;20045;-78
2023/04/09 08:50:16;;;;;;;30.90;19.75;;;10.40;99.90;;;;;;5043218;28;20080;-78
2023/04/09 08:52:44;;;;;;;33.03;19.17;;;10.50;99.90;;;;;;5029013;28;20079;-79
2023/04/09 08:55:11;;;;;;;33.10;20.23;;;10.60;99.90;;;;;;5060385;28;20087;-79
2023/04/09 08:57:38;;;;;;;32.08;20.02;;;10.60;99.90;;;;;;5044559;28;20057;-78
2023/04/09 09:00:05;;;;;;;33.00;19.30;;;10.70;99.90;;;;;;5044553;28;20044;-79
2023/04/09 09:02:30;;;;;;;31.77;20.20;;;10.70;99.90;;;;;;5077436;28;20370;-79
2023/04/09 09:04:59;;;;;;;35.78;19.92;;;10.80;99.90;;;;;;5046540;28;20175;-78
2023/04/09 09:07:28;;;;;;;30.70;19.92;;;10.90;99.90;;;;;;5043334;28;20041;-79
2023/04/09 09:09:56;;;;;;;36.53;19.80;;;11.10;99.90;;;;;;5078849;28;20045;-79
2023/04/09 09:12:43;;;;;;;34.53;20.13;;;11.10;99.90;;;;;;5043715;28;20049;-79
2023/04/09 09:15:28;;;;;;;30.20;19.48;;;11.00;99.90;;;;;;5076598;28;20503;-80
2023/04/09 09:17:57;;;;;;;30.15;19.25;;;11.10;99.90;;;;;;5062169;28;20049;-79
2023/04/09 09:20:24;;;;;;;28.88;17.98;;;11.20;99.90;;;;;;5044326;28;20044;-79
2023/04/09 09:22:52;;;;;;;29.60;18.45;;;11.30;99.90;;;;;;5044919;28;20056;-79
2023/04/09 09:25:22;;;;;;;26.42;17.50;;;11.90;99.90;;;;;;5043441;28;20485;-79
2023/04/09 09:27:47;;;;;;;28.08;18.15;;;11.40;99.90;;;;;;5043990;28;20049;-79
2023/04/09 09:30:26;;;;;;;29.30;19.27;;;11.40;99.90;;;;;;5028461;28;20056;-79
2023/04/09 09:32:53;;;;;;;26.92;17.55;;;11.40;99.90;;;;;;5042634;28;20045;-78
2023/04/09 09:35:19;;;;;;;29.25;19.38;;;11.50;99.90;;;;;;5044998;28;20160;-79
2023/04/09 09:37:45;;;;;;;33.65;17.90;;;11.50;99.90;;;;;;5026023;28;20488;-79
2023/04/09 09:40:25;;;;;;;29.77;19.02;;;11.40;99.90;;;;;;5027794;28;20576;-79
2023/04/09 09:42:57;;;;;;;29.92;19.17;;;11.50;99.90;;;;;;5076941;28;20052;-79
2023/04/09 09:45:24;;;;;;;20.15;13.05;;;11.50;99.90;;;;;;5043045;28;20048;-78
2023/04/09 09:47:52;;;;;;;30.33;20.15;;;11.50;99.90;;;;;;5028896;28;20045;-81
2023/04/09 09:50:22;;;;;;;28.25;18.08;;;11.60;99.90;;;;;;5025351;28;20140;-79
2023/04/09 09:53:05;;;;;;;27.45;17.73;;;10.90;99.90;;;;;;5028096;28;20037;-78
2023/04/09 09:55:32;;;;;;;28.45;18.20;;;11.60;99.90;;;;;;5026663;28;20056;-79
2023/04/09 09:58:05;;;;;;;28.88;19.55;;;11.70;99.90;;;;;;5042685;28;20060;-80
2023/04/09 10:00:32;;;;;;;32.70;19.52;;;11.80;99.90;;;;;;5027777;28;20045;-80
2023/04/09 10:03:13;;;;;;;29.23;18.70;;;11.90;99.90;;;;;;5041725;28;20121;-79
2023/04/09 10:05:40;;;;;;;28.88;17.98;;;12.00;99.90;;;;;;5077512;28;20076;-80
2023/04/09 10:08:06;;;;;;;29.45;19.52;;;12.10;99.90;;;;;;5043155;28;20095;-78
2023/04/09 10:10:33;;;;;;;28.67;19.23;;;12.20;99.90;;;;;;5042809;28;20059;-80
2023/04/09 10:12:59;;;;;;;31.00;19.70;;;12.30;99.90;;;;;;5043998;28;20039;-78
2023/04/09 10:15:27;;;;;;;34.50;19.35;;;12.30;99.90;;;;;;5058788;28;20066;-78
2023/04/09 10:17:54;;;;;;;33.08;20.77;;;12.40;99.90;;;;;;5044217;28;20049;-79
2023/04/09 10:20:33;;;;;;;33.65;21.08;;;12.40;99.90;;;;;;5058958;28;20128;-80
2023/04/09 10:23:05;;;;;;;30.67;19.85;;;12.50;99.90;;;;;;5059978;28;20091;-80
2023/04/09 10:25:31;;;;;;;29.80;19.65;;;12.60;99.90;;;;;;5026031;28;20036;-80
2023/04/09 10:28:01;;;;;;;28.83;19.15;;;12.90;99.90;;;;;;5025462;28;20124;-78
2023/04/09 10:30:36;;;;;;;29.42;19.08;;;13.10;99.90;;;;;;5043534;28;20900;-83
2023/04/09 10:33:28;;;;;;;28.88;18.83;;;13.20;99.90;;;;;;5008548;28;20060;-81
2023/04/09 10:35:58;;;;;;;26.88;17.25;;;13.40;99.90;;;;;;5058225;28;20143;-81
2023/04/09 10:38:44;;;;;;;27.00;17.92;;;13.70;99.90;;;;;;5043474;28;20040;-80
2023/04/09 10:41:27;;;;;;;27.58;18.02;;;14.00;99.90;;;;;;5040952;28;20101;-80
2023/04/09 10:43:53;;;;;;;;;;;14.10;99.90;;;;;;5027765;28;20148;-80
2023/04/09 10:46:29;;;;;;;27.20;18.30;;;14.20;99.90;;;;;;5041613;28;19979;-79
2023/04/09 10:49:19;;;;;;;28.30;18.90;;;14.30;99.90;;;;;;5075716;28;20492;-79
2023/04/09 10:51:53;;;;;;;27.73;20.20;;;14.30;99.90;;;;;;5026559;28;20041;-81
2023/04/09 10:54:31;;;;;;;29.52;20.45;;;14.20;99.90;;;;;;5074192;28;20041;-82
2023/04/09 10:57:06;;;;;;;30.60;20.08;;;14.20;99.90;;;;;;5026845;28;20102;-81
2023/04/09 10:59:36;;;;;;;27.02;18.92;;;14.20;99.90;;;;;;5042290;28;20130;-85
2023/04/09 11:02:07;;;;;;;26.60;18.70;;;14.40;99.90;;;;;;5041860;28;20059;-77
2023/04/09 11:04:51;;;;;;;27.90;19.13;;;14.40;99.90;;;;;;5076368;28;20110;-77
2023/04/09 11:07:20;;;;;;;28.50;19.50;;;14.40;99.90;;;;;;5024225;28;20059;-77
2023/04/09 11:09:46;;;;;;;28.42;19.58;;;14.50;99.90;;;;;;5043655;28;20094;-78
2023/04/09 11:12:12;;;;;;;28.10;20.27;;;14.50;99.90;;;;;;5041768;28;20124;-77
2023/04/09 11:14:38;;;;;;;30.33;20.10;;;14.60;99.90;;;;;;5042479;28;20121;-78
2023/04/09 11:17:03;;;;;;;27.00;17.60;;;14.50;99.90;;;;;;5042178;28;20480;-78
2023/04/09 11:19:29;;;;;;;26.85;18.63;;;14.60;99.90;;;;;;5057994;28;20045;-78
2023/04/09 11:21:55;;;;;;;26.48;18.42;;;14.70;99.90;;;;;;5042944;28;20049;-78
2023/04/09 11:24:23;;;;;;;28.38;18.63;;;14.70;99.90;;;;;;5040891;28;20131;-78
2023/04/09 11:26:49;;;;;;;28.13;18.73;;;14.70;99.90;;;;;;5044923;28;20049;-78
2023/04/09 11:29:15;;;;;;;26.88;16.55;;;14.70;99.90;;;;;;5042523;28;20132;-78
2023/04/09 11:31:44;;;;;;;24.77;17.60;;;14.80;99.90;;;;;;5025670;28;20045;-78
2023/04/09 11:34:11;;;;;;;25.33;18.45;;;14.80;99.90;;;;;;5025967;28;20037;-78
2023/04/09 11:36:37;;;;;;;24.58;17.02;;;14.80;99.90;;;;;;5041900;28;20060;-78
2023/04/09 11:39:03;;;;;;;25.30;17.08;;;14.90;99.90;;;;;;5014070;28;20037;-78
2023/04/09 11:41:36;;;;;;;25.45;18.13;;;15.10;99.90;;;;;;5044303;28;20519;-79
2023/04/09 11:44:06;;;;;;;26.00;17.48;;;15.20;99.90;;;;;;5063649;28;20500;-78
2023/04/09 11:46:33;;;;;;;24.15;16.88;;;15.30;99.90;;;;;;5078688;28;20131;-78
2023/04/09 11:49:00;;;;;;;23.40;16.75;;;15.40;99.90;;;;;;5045883;28;20519;-78
2023/04/09 11:51:26;;;;;;;24.00;16.13;;;15.60;99.90;;;;;;5029649;28;20045;-78
2023/04/09 11:53:52;;;;;;;25.25;17.98;;;15.60;99.90;;;;;;5045131;28;20037;-78
2023/04/09 11:56:19;;;;;;;23.10;16.85;;;15.40;99.90;;;;;;5030874;28;20045;-78
2023/04/09 11:58:46;;;;;;;25.52;17.35;;;15.50;99.90;;;;;;5011352;28;20080;-78
2023/04/09 12:01:15;;;;;;;23.13;16.40;;;15.40;99.90;;;;;;5046963;28;20078;-78
2023/04/09 12:03:41;;;;;;;24.27;15.25;;;15.60;99.90;;;;;;5044672;28;20102;-78
2023/04/09 12:06:08;;;;;;;23.65;14.98;;;15.60;99.90;;;;;;5028773;28;20123;-78
2023/04/09 12:08:35;;;;;;;21.05;14.82;;;15.50;99.90;;;;;;5045324;28;20493;-78
2023/04/09 12:11:11;;;;;;;22.33;14.45;;;15.50;99.90;;;;;;5027421;28;20080;-78
2023/04/09 12:13:42;;;;;;;21.00;15.07;;;15.60;99.90;;;;;;5046741;28;20569;-79
2023/04/09 12:16:11;;;;;;;20.55;15.80;;;15.80;99.90;;;;;;5027201;28;20496;-78
2023/04/09 12:18:37;;;;;;;22.80;16.05;;;15.80;99.90;;;;;;5046345;28;20048;-78
2023/04/09 12:21:03;;;;;;;20.63;14.38;;;15.90;99.90;;;;;;5045464;28;20052;-78
2023/04/09 12:23:32;;;;;;;19.55;14.68;;;15.90;99.90;;;;;;5027573;28;20270;-78
2023/04/09 12:26:01;;;;;;;20.70;14.80;;;15.90;99.90;;;;;;5062702;28;20044;-79
2023/04/09 12:28:27;;;;;;;22.90;16.45;;;15.90;99.90;;;;;;5076595;28;20559;-78
2023/04/09 12:30:54;;;;;;;20.05;14.40;;;15.90;99.90;;;;;;5080383;28;20040;-78
2023/04/09 12:33:20;;;;;;;20.00;14.18;;;16.10;99.90;;;;;;5026525;28;20552;-78
2023/04/09 12:35:46;;;;;;;20.00;13.00;;;16.30;99.90;;;;;;5012484;28;20187;-78